Warren, Minnesota
Current Conditions -  °F | °C
As of 7:34 AM on Friday 28 Nov 2014 (Local Time) from KCKN Reporting Station
Overcast Overcast  
Wind Chill:   Ceiling: 2700
Heat Index: 12°   Visibility: 10mi
Dew Point:   Wind: 5mph
Humidity: 79%   Direction: 100°E
Pressure: 30"   Gusts: NA
Location:  48.2°N, 96.77°W
Report Text: KCKN 281334Z AUTO 10004KT 10SM BKN027 OVC050 M11/M14 A3000 RMK AO2
Loading
Personal Weather Stations






























Interactive Weather Map New forecast layout! Learn more

10-Day Weather Forecast

Advertisements
Track Severe Weather on mobile